createdAt,value
2023-04-23T00:00:41.645Z,97822.03
2023-04-23T00:03:12.789Z,97816.94
2023-04-23T00:05:39.619Z,97818.81
2023-04-23T00:08:06.352Z,97822.25
2023-04-23T00:10:33.072Z,97823.88
2023-04-23T00:12:59.858Z,97820.84
2023-04-23T00:15:27.005Z,97819.63
2023-04-23T00:17:54.126Z,97819.34
2023-04-23T00:20:20.730Z,97821.66
2023-04-23T00:22:47.154Z,97819.88
2023-04-23T00:25:13.593Z,97819.63
2023-04-23T00:27:40.232Z,97813.69
2023-04-23T00:30:07.172Z,97804.03
2023-04-23T00:32:33.722Z,97803.16
2023-04-23T00:35:01.032Z,97815.53
2023-04-23T00:37:27.525Z,97810.81
2023-04-23T00:39:53.958Z,97811.19
2023-04-23T00:42:21.497Z,97813.25
2023-04-23T00:44:50.577Z,97818.31
2023-04-23T00:47:17.934Z,97822.84
2023-04-23T00:49:45.481Z,97823.50
2023-04-23T00:52:12.044Z,97825.59
2023-04-23T00:54:38.729Z,97826.50
2023-04-23T00:57:05.432Z,97823.97
2023-04-23T00:59:32.175Z,97827.13
2023-04-23T01:01:59.225Z,97830.34
2023-04-23T01:04:29.494Z,97833.63
2023-04-23T01:06:56.898Z,97836.53
2023-04-23T01:09:23.867Z,97828.78
2023-04-23T01:11:51.520Z,97830.41
2023-04-23T01:14:18.015Z,97828.03
2023-04-23T01:16:44.663Z,97833.06
2023-04-23T01:19:11.538Z,97832.81
2023-04-23T01:21:41.558Z,97833.50
2023-04-23T01:24:09.663Z,97832.72
2023-04-23T01:26:36.279Z,97823.19
2023-04-23T01:29:03.568Z,97824.69
2023-04-23T01:31:30.900Z,97823.25
2023-04-23T01:33:58.679Z,97823.31
2023-04-23T01:36:25.403Z,97820.16
2023-04-23T01:38:52.332Z,97826.81
2023-04-23T01:41:19.953Z,97827.44
2023-04-23T01:43:46.524Z,97830.66
2023-04-23T01:46:13.132Z,97837.16
2023-04-23T01:48:40.621Z,97840.88
2023-04-23T01:51:07.548Z,97838.56
2023-04-23T01:53:34.526Z,97838.72
2023-04-23T01:56:02.518Z,97843.38
2023-04-23T01:58:29.069Z,97848.88
2023-04-23T02:00:56.181Z,97855.75
2023-04-23T02:03:23.305Z,97856.94
2023-04-23T02:05:50.785Z,97850.63
2023-04-23T02:08:17.243Z,97860.81
2023-04-23T02:10:43.986Z,97854.28
2023-04-23T02:13:10.997Z,97849.91
2023-04-23T02:15:38.225Z,97844.44
2023-04-23T02:18:04.895Z,97852.66
2023-04-23T02:20:31.473Z,97842.59
2023-04-23T02:22:58.090Z,97850.06
2023-04-23T02:25:24.579Z,97851.22
2023-04-23T02:27:51.121Z,97841.78
2023-04-23T02:30:17.748Z,97850.00
2023-04-23T02:32:44.368Z,97849.66
2023-04-23T02:35:10.923Z,97851.44
2023-04-23T02:37:37.697Z,97855.31
2023-04-23T02:40:08.098Z,97859.41
2023-04-23T02:42:34.862Z,97858.81
2023-04-23T02:45:01.379Z,97856.50
2023-04-23T02:47:27.899Z,97849.22
2023-04-23T02:49:54.479Z,97852.34
2023-04-23T02:52:21.357Z,97860.97
2023-04-23T02:54:48.269Z,97857.16
2023-04-23T02:57:16.401Z,97859.06
2023-04-23T02:59:43.521Z,97864.28
2023-04-23T03:02:10.983Z,97859.97
2023-04-23T03:04:38.092Z,97864.81
2023-04-23T03:07:04.581Z,97859.53
2023-04-23T03:09:32.301Z,97858.19
2023-04-23T03:11:58.768Z,97854.13
2023-04-23T03:14:25.481Z,97854.38
2023-04-23T03:16:52.203Z,97854.13
2023-04-23T03:19:18.866Z,97847.81
2023-04-23T03:21:45.307Z,97856.03
2023-04-23T03:24:15.015Z,97856.03
2023-04-23T03:26:41.582Z,97851.78
2023-04-23T03:29:08.759Z,97855.47
2023-04-23T03:31:35.194Z,97859.97
2023-04-23T03:34:02.008Z,97858.38
2023-04-23T03:36:32.685Z,97867.28
2023-04-23T03:39:00.661Z,97864.81
2023-04-23T03:41:33.416Z,97856.72
2023-04-23T03:44:00.574Z,97864.44
2023-04-23T03:46:41.698Z,97867.03
2023-04-23T03:49:08.757Z,97862.91
2023-04-23T03:51:35.386Z,97858.09
2023-04-23T03:54:01.840Z,97865.25
2023-04-23T03:56:31.019Z,97859.75
2023-04-23T03:59:17.742Z,97865.44
2023-04-23T04:01:45.481Z,97866.81
2023-04-23T04:04:12.171Z,97863.94
2023-04-23T04:06:38.786Z,97862.13
2023-04-23T04:09:07.922Z,97858.25
2023-04-23T04:11:34.897Z,97865.16
2023-04-23T04:14:02.492Z,97855.81
2023-04-23T04:16:29.145Z,97866.00
2023-04-23T04:18:56.718Z,97869.84
2023-04-23T04:21:23.259Z,97867.19
2023-04-23T04:23:49.770Z,97866.53
2023-04-23T04:26:16.281Z,97869.63
2023-04-23T04:28:42.750Z,97867.56
2023-04-23T04:31:10.366Z,97867.78
2023-04-23T04:33:39.723Z,97855.97
2023-04-23T04:36:08.635Z,97850.72
2023-04-23T04:38:37.820Z,97858.44
2023-04-23T04:41:04.926Z,97859.41
2023-04-23T04:43:32.489Z,97862.75
2023-04-23T04:46:01.566Z,97851.22
2023-04-23T04:48:28.002Z,97851.72
2023-04-23T04:50:54.482Z,97849.25
2023-04-23T04:53:20.964Z,97846.88
2023-04-23T04:55:47.448Z,97853.94
2023-04-23T04:58:14.320Z,97846.66
2023-04-23T05:00:40.824Z,97848.88
2023-04-23T05:03:07.781Z,97843.81
2023-04-23T05:05:34.552Z,97846.00
2023-04-23T05:08:02.233Z,97841.06
2023-04-23T05:10:29.777Z,97846.91
2023-04-23T05:13:00.665Z,97847.53
2023-04-23T05:15:27.199Z,97853.28
2023-04-23T05:17:54.152Z,97854.06
2023-04-23T05:20:21.567Z,97848.03
2023-04-23T05:22:48.545Z,97850.22
2023-04-23T05:25:15.099Z,97848.69
2023-04-23T05:27:41.698Z,97846.19
2023-04-23T05:30:10.272Z,97849.94
2023-04-23T05:32:37.185Z,97845.59
2023-04-23T05:35:04.109Z,97855.78
2023-04-23T05:37:30.773Z,97847.28
2023-04-23T05:39:58.206Z,97842.94
2023-04-23T05:42:24.897Z,97843.97
2023-04-23T05:44:51.603Z,97849.72
2023-04-23T05:47:18.056Z,97847.19
2023-04-23T05:49:44.561Z,97855.16
2023-04-23T05:52:11.714Z,97861.72
2023-04-23T05:54:39.218Z,97861.44
2023-04-23T05:57:05.940Z,97866.28
2023-04-23T05:59:32.575Z,97869.41
2023-04-23T06:01:59.193Z,97866.47
2023-04-23T06:04:25.921Z,97861.22
2023-04-23T06:06:52.562Z,97848.00
2023-04-23T06:09:19.011Z,97852.59
2023-04-23T06:11:45.500Z,97856.94
2023-04-23T06:14:11.999Z,97849.66
2023-04-23T06:16:38.575Z,97849.69
2023-04-23T06:19:05.352Z,97850.16
2023-04-23T06:21:32.454Z,97851.34
2023-04-23T06:23:58.934Z,97855.41
2023-04-23T06:26:25.545Z,97854.78
2023-04-23T06:28:54.901Z,97860.38
2023-04-23T06:31:28.595Z,97858.31
2023-04-23T06:33:55.385Z,97857.03
2023-04-23T06:36:21.876Z,97856.19
2023-04-23T06:38:48.328Z,97844.97
2023-04-23T06:41:15.387Z,97851.06
2023-04-23T06:43:42.634Z,97851.91
2023-04-23T06:46:28.013Z,97843.31
2023-04-23T06:48:54.562Z,97836.91
2023-04-23T06:51:21.201Z,97831.16
2023-04-23T06:53:47.744Z,97833.09
2023-04-23T06:56:14.217Z,97830.09
2023-04-23T06:58:41.167Z,97833.38
2023-04-23T07:01:16.053Z,97836.25
2023-04-23T07:03:45.187Z,97827.94
2023-04-23T07:06:12.039Z,97828.78
2023-04-23T07:08:39.684Z,97828.81
2023-04-23T07:11:06.190Z,97823.25
2023-04-23T07:13:32.684Z,97824.06
2023-04-23T07:15:59.118Z,97823.38
2023-04-23T07:18:25.689Z,97825.81
2023-04-23T07:20:52.236Z,97823.91
2023-04-23T07:23:18.739Z,97831.09
2023-04-23T07:25:45.204Z,97824.63
2023-04-23T07:28:11.693Z,97822.22
2023-04-23T07:30:38.234Z,97822.94
2023-04-23T07:33:04.809Z,97813.47
2023-04-23T07:35:31.328Z,97819.50
2023-04-23T07:37:58.214Z,97814.09
2023-04-23T07:40:25.522Z,97817.72
2023-04-23T07:42:52.640Z,97811.13
2023-04-23T07:45:19.607Z,97812.00
2023-04-23T07:47:46.594Z,97814.00
2023-04-23T07:50:13.944Z,97818.34
2023-04-23T07:52:40.740Z,97818.25
2023-04-23T07:55:08.042Z,97804.88
2023-04-23T07:57:34.498Z,97813.63
2023-04-23T08:00:01.402Z,97812.91
2023-04-23T08:02:28.563Z,97810.75
2023-04-23T08:04:55.455Z,97809.03
2023-04-23T08:07:22.054Z,97810.28
2023-04-23T08:09:49.025Z,97817.19
2023-04-23T08:12:17.207Z,97813.38
2023-04-23T08:14:44.327Z,97809.47
2023-04-23T08:17:14.407Z,97803.50
2023-04-23T08:19:41.241Z,97799.06
2023-04-23T08:22:08.042Z,97796.16
2023-04-23T08:24:34.519Z,97793.69
2023-04-23T08:27:01.719Z,97792.56
2023-04-23T08:29:28.142Z,97786.69
2023-04-23T08:31:55.059Z,97791.09
2023-04-23T08:34:21.547Z,97786.16
2023-04-23T08:36:49.387Z,97781.34
2023-04-23T08:39:15.898Z,97774.78
2023-04-23T08:41:44.156Z,97780.56
2023-04-23T08:44:18.404Z,97771.09
2023-04-23T08:46:45.574Z,97769.13
2023-04-23T08:49:16.488Z,97769.91
2023-04-23T08:52:16.814Z,97763.25
2023-04-23T08:54:47.965Z,97763.44
2023-04-23T08:57:16.842Z,97766.41
2023-04-23T08:59:44.417Z,97763.72
2023-04-23T09:02:11.211Z,97769.38
2023-04-23T09:04:38.251Z,97761.34
2023-04-23T09:07:04.973Z,97761.69
2023-04-23T09:09:31.497Z,97769.06
2023-04-23T09:11:58.458Z,97764.09
2023-04-23T09:14:25.624Z,97761.91
2023-04-23T09:16:52.928Z,97763.91
2023-04-23T09:19:19.498Z,97762.00
2023-04-23T09:21:46.723Z,97756.00
2023-04-23T09:24:14.795Z,97750.66
2023-04-23T09:26:46.707Z,97746.47
2023-04-23T09:29:21.595Z,97744.34
2023-04-23T09:31:52.503Z,97743.63
2023-04-23T09:34:20.789Z,97742.59
2023-04-23T09:36:50.706Z,97741.53
2023-04-23T09:39:19.697Z,97734.31
2023-04-23T09:41:49.199Z,97728.59
2023-04-23T09:44:22.280Z,97724.28
2023-04-23T09:46:48.876Z,97710.34
2023-04-23T09:49:15.704Z,97713.00
2023-04-23T09:51:43.325Z,97713.06
2023-04-23T09:54:21.676Z,97699.63
2023-04-23T09:56:53.863Z,97699.63
2023-04-23T09:59:46.277Z,97698.44
2023-04-23T10:02:12.487Z,97696.22
2023-04-23T10:04:40.034Z,97697.28
2023-04-23T10:07:18.946Z,97694.38
2023-04-23T10:09:47.137Z,97697.03
2023-04-23T10:14:46.029Z,97683.06
2023-04-23T10:17:12.802Z,97680.44
2023-04-23T10:19:41.579Z,97678.81
2023-04-23T10:22:19.472Z,97675.34
2023-04-23T10:24:51.938Z,97675.00
2023-04-23T10:29:51.420Z,97668.53
2023-04-23T10:32:20.272Z,97671.97
2023-04-23T10:34:48.047Z,97670.97
2023-04-23T10:37:15.890Z,97665.94
2023-04-23T10:39:44.724Z,97661.72
2023-04-23T10:42:13.488Z,97651.72
2023-04-23T10:47:14.940Z,97645.84
2023-04-23T10:49:42.755Z,97636.88
2023-04-23T10:52:21.130Z,97635.97
2023-04-23T10:54:50.552Z,97628.97
2023-04-23T10:57:17.066Z,97630.31
2023-04-23T10:59:56.168Z,97620.84
2023-04-23T11:02:26.232Z,97611.81
2023-04-23T11:04:57.765Z,97610.38
2023-04-23T11:07:32.330Z,97609.06
2023-04-23T11:10:00.267Z,97605.88
2023-04-23T11:12:32.739Z,97611.41
2023-04-23T11:14:59.767Z,97606.88
2023-04-23T11:17:32.312Z,97610.94
2023-04-23T11:20:07.029Z,97602.94
2023-04-23T11:22:38.769Z,97594.97
2023-04-23T11:25:10.027Z,97592.28
2023-04-23T11:27:39.648Z,97584.00
2023-04-23T11:30:14.335Z,97581.22
2023-04-23T11:32:51.713Z,97566.81
2023-04-23T11:35:21.616Z,97566.59
2023-04-23T11:37:49.176Z,97565.31
2023-04-23T11:40:20.403Z,97554.38
2023-04-23T11:42:51.879Z,97547.88
2023-04-23T11:45:22.516Z,97547.13
2023-04-23T11:47:53.523Z,97545.34
2023-04-23T11:50:21.683Z,97553.63
2023-04-23T11:52:48.469Z,97538.84
2023-04-23T11:55:16.340Z,97533.81
2023-04-23T11:59:32.743Z,97514.34
2023-04-23T12:02:00.351Z,97505.03
2023-04-23T12:04:29.004Z,97503.19
2023-04-23T12:06:57.419Z,97500.66
2023-04-23T12:09:26.321Z,97492.72
2023-04-23T12:11:52.937Z,97490.28
2023-04-23T12:14:23.999Z,97495.31
2023-04-23T12:16:52.363Z,97489.16
2023-04-23T12:19:21.310Z,97493.69
2023-04-23T12:21:55.799Z,97484.03
2023-04-23T12:24:28.153Z,97493.94
2023-04-23T12:26:58.524Z,97473.84
2023-04-23T12:29:26.077Z,97482.16
2023-04-23T12:31:53.703Z,97470.47
2023-04-23T12:34:21.378Z,97472.41
2023-04-23T12:36:50.518Z,97462.69
2023-04-23T12:39:20.479Z,97464.03
2023-04-23T12:41:47.098Z,97463.66
2023-04-23T12:44:14.917Z,97463.53
2023-04-23T12:46:41.436Z,97455.69
2023-04-23T12:49:08.039Z,97444.53
2023-04-23T12:51:34.625Z,97450.91
2023-04-23T12:54:01.145Z,97451.72
2023-04-23T12:56:27.666Z,97449.13
2023-04-23T12:58:54.111Z,97448.53
2023-04-23T13:01:20.934Z,97450.34
2023-04-23T13:03:47.885Z,97442.25
2023-04-23T13:06:15.679Z,97438.84
2023-04-23T13:08:42.142Z,97429.31
2023-04-23T13:11:08.720Z,97422.53
2023-04-23T13:13:35.625Z,97411.38
2023-04-23T13:16:02.124Z,97415.75
2023-04-23T13:18:28.669Z,97411.06
2023-04-23T13:20:55.125Z,97410.13
2023-04-23T13:23:21.732Z,97401.06
2023-04-23T13:25:48.256Z,97402.56
2023-04-23T13:28:15.012Z,97403.25
2023-04-23T13:30:41.535Z,97394.75
2023-04-23T13:33:08.194Z,97386.53
2023-04-23T13:35:37.698Z,97385.72
2023-04-23T13:38:04.891Z,97379.13
2023-04-23T13:40:31.445Z,97371.59
2023-04-23T13:42:58.141Z,97370.97
2023-04-23T13:45:26.102Z,97364.28
2023-04-23T13:47:52.705Z,97361.63
2023-04-23T13:50:19.459Z,97350.50
2023-04-23T13:52:46.029Z,97341.16
2023-04-23T13:55:12.653Z,97336.03
2023-04-23T13:57:40.037Z,97334.81
2023-04-23T14:00:07.461Z,97331.88
2023-04-23T14:02:35.018Z,97333.06
2023-04-23T14:05:03.786Z,97321.97
2023-04-23T14:07:30.308Z,97320.41
2023-04-23T14:09:56.843Z,97313.19
2023-04-23T14:12:24.119Z,97312.50
2023-04-23T14:14:50.738Z,97310.13
2023-04-23T14:17:17.305Z,97309.31
2023-04-23T14:19:44.179Z,97305.31
2023-04-23T14:22:10.877Z,97301.13
2023-04-23T14:24:45.660Z,97298.72
2023-04-23T14:27:15.181Z,97289.34
2023-04-23T14:29:46.657Z,97294.50
2023-04-23T14:32:13.669Z,97290.50
2023-04-23T14:34:40.283Z,97289.19
2023-04-23T14:37:07.056Z,97289.72
2023-04-23T14:39:34.331Z,97286.50
2023-04-23T14:42:01.196Z,97285.97
2023-04-23T14:44:27.704Z,97270.78
2023-04-23T14:46:54.383Z,97274.19
2023-04-23T14:49:22.149Z,97279.56
2023-04-23T14:51:55.747Z,97285.19
2023-04-23T14:54:22.809Z,97291.59
2023-04-23T14:56:50.830Z,97297.97
2023-04-23T14:59:17.399Z,97311.03
2023-04-23T15:01:44.062Z,97325.41
2023-04-23T15:04:15.053Z,97344.22
2023-04-23T15:06:44.206Z,97391.13
2023-04-23T15:09:10.708Z,97398.91
2023-04-23T15:11:41.227Z,97408.38
2023-04-23T15:14:19.496Z,97412.94
2023-04-23T15:16:49.712Z,97405.16
2023-04-23T15:19:18.101Z,97385.75
2023-04-23T15:21:45.635Z,97382.13
2023-04-23T15:24:14.630Z,97373.91
2023-04-23T15:26:45.934Z,97376.56
2023-04-23T15:29:13.566Z,97377.88
2023-04-23T15:31:40.695Z,97374.53
2023-04-23T15:34:08.914Z,97371.91
2023-04-23T15:36:37.222Z,97358.59
2023-04-23T15:39:03.881Z,97348.88
2023-04-23T15:41:30.481Z,97328.94
2023-04-23T15:43:57.020Z,97319.97
2023-04-23T15:46:24.807Z,97315.66
2023-04-23T15:48:51.299Z,97308.34
2023-04-23T15:51:18.364Z,97309.63
2023-04-23T15:53:44.909Z,97309.13
2023-04-23T15:56:13.736Z,97303.38
2023-04-23T15:58:40.251Z,97299.44
2023-04-23T16:01:11.200Z,97304.72
2023-04-23T16:03:38.166Z,97298.38
2023-04-23T16:06:07.275Z,97306.31
2023-04-23T16:08:34.924Z,97304.41
2023-04-23T16:11:01.478Z,97310.25
2023-04-23T16:13:28.916Z,97317.66
2023-04-23T16:15:55.556Z,97319.94
2023-04-23T16:18:25.006Z,97343.31
2023-04-23T16:20:51.505Z,97340.72
2023-04-23T16:23:18.185Z,97341.97
2023-04-23T16:25:55.032Z,97353.75
2023-04-23T16:28:22.531Z,97348.69
2023-04-23T16:30:49.203Z,97346.66
2023-04-23T16:33:23.366Z,97340.91
2023-04-23T16:35:49.811Z,97337.50
2023-04-23T16:38:17.446Z,97323.66
2023-04-23T16:40:47.065Z,97328.22
2023-04-23T16:43:22.397Z,97323.25
2023-04-23T16:45:48.878Z,97321.63
2023-04-23T16:48:16.700Z,97314.97
2023-04-23T16:50:44.241Z,97311.84
2023-04-23T16:53:10.780Z,97314.97
2023-04-23T16:55:38.132Z,97316.50
2023-04-23T16:58:11.149Z,97309.63
2023-04-23T17:00:38.214Z,97308.66
2023-04-23T17:03:04.925Z,97303.03
2023-04-23T17:05:34.070Z,97316.88
2023-04-23T17:08:00.685Z,97317.94
2023-04-23T17:10:27.259Z,97309.41
2023-04-23T17:12:57.095Z,97309.00
2023-04-23T17:15:26.524Z,97303.94
2023-04-23T17:17:56.217Z,97303.78
2023-04-23T17:20:24.176Z,97300.56
2023-04-23T17:22:53.073Z,97296.78
2023-04-23T17:25:22.094Z,97309.53
2023-04-23T17:27:48.544Z,97308.19
2023-04-23T17:30:15.676Z,97304.03
2023-04-23T17:32:42.290Z,97299.19
2023-04-23T17:35:10.851Z,97298.47
2023-04-23T17:37:37.800Z,97302.63
2023-04-23T17:40:05.781Z,97294.69
2023-04-23T17:42:32.238Z,97295.72
2023-04-23T17:44:58.917Z,97300.16
2023-04-23T17:47:27.705Z,97297.72
2023-04-23T17:49:54.959Z,97293.13
2023-04-23T17:52:24.222Z,97292.50
2023-04-23T17:54:50.976Z,97300.16
2023-04-23T17:57:18.125Z,97285.19
2023-04-23T17:59:47.206Z,97282.22
2023-04-23T18:02:13.953Z,97276.88
2023-04-23T18:04:41.732Z,97276.88
2023-04-23T18:07:09.083Z,97280.22
2023-04-23T18:09:36.147Z,97268.03
2023-04-23T18:12:03.881Z,97285.13
2023-04-23T18:14:30.726Z,97288.31
2023-04-23T18:16:57.269Z,97287.28
2023-04-23T18:19:24.124Z,97283.28
2023-04-23T18:21:50.919Z,97279.56
2023-04-23T18:24:18.665Z,97274.13
2023-04-23T18:26:45.186Z,97281.34
2023-04-23T18:29:12.390Z,97275.41
2023-04-23T18:31:39.122Z,97275.84
2023-04-23T18:34:10.005Z,97279.94
2023-04-23T18:36:38.070Z,97281.91
2023-04-23T18:39:05.605Z,97286.63
2023-04-23T18:41:32.546Z,97290.56
2023-04-23T18:44:00.438Z,97287.56
2023-04-23T18:46:27.831Z,97284.69
2023-04-23T18:49:04.499Z,97300.66
2023-04-23T18:51:38.504Z,97307.72
2023-04-23T18:54:05.835Z,97306.78
2023-04-23T18:56:32.375Z,97320.53
2023-04-23T18:58:58.835Z,97315.59
2023-04-23T19:01:27.658Z,97323.72
2023-04-23T19:03:54.552Z,97324.69
2023-04-23T19:06:21.177Z,97333.06
2023-04-23T19:08:47.770Z,97339.50
2023-04-23T19:11:15.238Z,97345.50
2023-04-23T19:13:41.749Z,97355.25
2023-04-23T19:16:16.127Z,97359.63
2023-04-23T19:18:42.650Z,97368.94
2023-04-23T19:21:12.250Z,97377.91
2023-04-23T19:23:41.276Z,97379.41
2023-04-23T19:26:12.981Z,97378.38
2023-04-23T19:28:40.139Z,97378.13
2023-04-23T19:31:06.774Z,97380.09
2023-04-23T19:33:33.471Z,97380.44
2023-04-23T19:35:59.953Z,97381.59
2023-04-23T19:38:26.696Z,97382.03
2023-04-23T19:40:59.416Z,97384.44
2023-04-23T19:43:25.917Z,97391.09
2023-04-23T19:45:53.342Z,97384.66
2023-04-23T19:48:19.858Z,97385.25
2023-04-23T19:50:48.070Z,97388.81
2023-04-23T19:53:17.610Z,97381.13
2023-04-23T19:55:44.246Z,97374.19
2023-04-23T19:58:10.959Z,97373.38
2023-04-23T20:00:41.922Z,97376.50
2023-04-23T20:03:08.708Z,97370.97
2023-04-23T20:05:35.479Z,97360.41
2023-04-23T20:08:04.356Z,97358.66
2023-04-23T20:10:33.773Z,97351.69
2023-04-23T20:13:00.466Z,97350.41
2023-04-23T20:15:29.085Z,97349.34
2023-04-23T20:17:57.859Z,97350.59
2023-04-23T20:20:29.714Z,97345.44
2023-04-23T20:23:00.389Z,97350.47
2023-04-23T20:25:27.016Z,97349.25
2023-04-23T20:27:56.421Z,97349.91
2023-04-23T20:30:22.945Z,97355.94
2023-04-23T20:32:49.452Z,97358.56
2023-04-23T20:35:16.081Z,97358.44
2023-04-23T20:37:42.743Z,97358.19
2023-04-23T20:40:10.687Z,97365.38
2023-04-23T20:42:39.172Z,97370.25
2023-04-23T20:45:09.493Z,97366.72
2023-04-23T20:47:36.161Z,97353.44
2023-04-23T20:50:02.797Z,97356.03
2023-04-23T20:52:29.355Z,97356.22
2023-04-23T20:54:56.065Z,97360.00
2023-04-23T20:57:25.767Z,97372.81
2023-04-23T20:59:52.350Z,97356.44
2023-04-23T21:02:18.961Z,97359.09
2023-04-23T21:04:45.565Z,97355.91
2023-04-23T21:07:12.108Z,97343.94
2023-04-23T21:09:39.040Z,97352.84
2023-04-23T21:12:05.812Z,97347.22
2023-04-23T21:14:33.011Z,97350.94
2023-04-23T21:16:59.518Z,97352.59
2023-04-23T21:19:26.269Z,97355.09
2023-04-23T21:21:52.769Z,97360.31
2023-04-23T21:24:19.266Z,97365.06
2023-04-23T21:26:46.397Z,97371.50
2023-04-23T21:29:15.322Z,97370.00
2023-04-23T21:31:52.102Z,97363.38
2023-04-23T21:34:22.046Z,97363.03
2023-04-23T21:36:49.166Z,97363.31
2023-04-23T21:39:16.419Z,97357.91
2023-04-23T21:41:44.745Z,97357.31
2023-04-23T21:44:11.364Z,97358.13
2023-04-23T21:46:37.946Z,97359.72
2023-04-23T21:49:07.888Z,97355.41
2023-04-23T21:51:36.913Z,97351.88
2023-04-23T21:54:05.733Z,97357.38
2023-04-23T21:56:32.920Z,97353.56
2023-04-23T21:58:59.413Z,97361.72
2023-04-23T22:01:25.944Z,97361.06
2023-04-23T22:03:52.796Z,97365.91
2023-04-23T22:06:23.126Z,97360.34
2023-04-23T22:08:49.674Z,97358.19
2023-04-23T22:11:19.104Z,97360.16
2023-04-23T22:13:45.811Z,97360.25
2023-04-23T22:16:26.993Z,97353.44
2023-04-23T22:18:56.568Z,97357.28
2023-04-23T22:21:23.113Z,97364.44
2023-04-23T22:23:49.657Z,97355.25
2023-04-23T22:26:16.220Z,97349.63
2023-04-23T22:28:43.459Z,97344.56
2023-04-23T22:31:10.463Z,97345.66
2023-04-23T22:33:37.541Z,97349.41
2023-04-23T22:36:05.302Z,97342.69
2023-04-23T22:38:31.751Z,97347.84
2023-04-23T22:40:58.321Z,97353.41
2023-04-23T22:43:24.814Z,97345.00
2023-04-23T22:45:51.322Z,97342.31
2023-04-23T22:48:17.887Z,97344.34
2023-04-23T22:50:44.372Z,97337.75
2023-04-23T22:53:10.823Z,97342.16
2023-04-23T22:55:37.285Z,97336.81
2023-04-23T22:58:04.037Z,97332.91
2023-04-23T23:00:31.111Z,97330.56
2023-04-23T23:02:57.746Z,97326.25
2023-04-23T23:05:24.291Z,97324.63
2023-04-23T23:07:51.592Z,97323.31
2023-04-23T23:10:21.517Z,97325.16
2023-04-23T23:12:49.243Z,97322.06
2023-04-23T23:15:15.804Z,97326.41
2023-04-23T23:17:42.286Z,97327.13
2023-04-23T23:20:09.244Z,97322.16
2023-04-23T23:22:36.201Z,97325.59
2023-04-23T23:25:03.081Z,97325.28
2023-04-23T23:27:29.571Z,97321.84
2023-04-23T23:29:57.844Z,97323.53
2023-04-23T23:32:24.386Z,97320.47
2023-04-23T23:34:51.484Z,97320.91
2023-04-23T23:37:18.096Z,97316.38
2023-04-23T23:39:44.709Z,97314.09
2023-04-23T23:42:11.170Z,97318.78
2023-04-23T23:44:37.683Z,97304.41
2023-04-23T23:47:04.283Z,97306.63
2023-04-23T23:49:31.157Z,97304.59
2023-04-23T23:51:57.896Z,97299.00
2023-04-23T23:54:24.428Z,97304.84
2023-04-23T23:56:50.965Z,97304.91
2023-04-23T23:59:17.460Z,97306.16
